createdAt,value
2023-01-20T00:00:14.732Z,3.64
2023-01-20T00:00:36.455Z,3.66
2023-01-20T00:01:00.449Z,3.67
2023-01-20T00:01:22.352Z,3.69
2023-01-20T00:01:46.801Z,3.71
2023-01-20T00:02:08.677Z,3.72
2023-01-20T00:02:30.519Z,3.72
2023-01-20T00:02:52.382Z,3.73
2023-01-20T00:03:14.325Z,3.73
2023-01-20T00:03:36.243Z,3.73
2023-01-20T00:03:58.170Z,3.72
2023-01-20T00:04:20.318Z,3.72
2023-01-20T00:04:42.280Z,3.71
2023-01-20T00:05:04.271Z,3.69
2023-01-20T00:05:26.276Z,3.69
2023-01-20T00:05:51.212Z,3.68
2023-01-20T00:06:12.906Z,3.67
2023-01-20T00:06:34.685Z,3.66
2023-01-20T00:06:56.399Z,3.65
2023-01-20T00:07:18.081Z,3.64
2023-01-20T00:07:39.833Z,3.64
2023-01-20T00:08:01.613Z,3.63
2023-01-20T00:08:23.602Z,3.63
2023-01-20T00:08:45.389Z,3.62
2023-01-20T00:09:07.375Z,3.61
2023-01-20T00:09:29.161Z,3.61
2023-01-20T00:09:50.870Z,3.60
2023-01-20T00:10:12.627Z,3.59
2023-01-20T00:10:34.413Z,3.58
2023-01-20T00:10:56.094Z,3.58
2023-01-20T00:11:17.873Z,3.57
2023-01-20T00:11:39.662Z,3.57
2023-01-20T00:12:01.464Z,3.55
2023-01-20T00:12:23.236Z,3.54
2023-01-20T00:12:45.018Z,3.53
2023-01-20T00:13:06.800Z,3.53
2023-01-20T00:13:28.586Z,3.53
2023-01-20T00:13:53.951Z,3.54
2023-01-20T00:14:15.851Z,3.55
2023-01-20T00:14:37.599Z,3.56
2023-01-20T00:14:59.322Z,3.57
2023-01-20T00:15:21.088Z,3.59
2023-01-20T00:15:42.890Z,3.60
2023-01-20T00:16:05.309Z,3.62
2023-01-20T00:16:27.467Z,3.63
2023-01-20T00:16:49.256Z,3.65
2023-01-20T00:17:10.956Z,3.66
2023-01-20T00:17:32.917Z,3.66
2023-01-20T00:17:54.703Z,3.66
2023-01-20T00:18:16.491Z,3.66
2023-01-20T00:18:38.575Z,3.67
2023-01-20T00:19:00.272Z,3.66
2023-01-20T00:19:21.969Z,3.66
2023-01-20T00:19:43.726Z,3.65
2023-01-20T00:20:05.748Z,3.64
2023-01-20T00:20:27.603Z,3.64
2023-01-20T00:20:49.598Z,3.64
2023-01-20T00:21:11.967Z,3.63
2023-01-20T00:21:35.165Z,3.63
2023-01-20T00:21:57.093Z,3.62
2023-01-20T00:22:18.772Z,3.62
2023-01-20T00:22:42.500Z,3.61
2023-01-20T00:23:04.301Z,3.60
2023-01-20T00:23:26.074Z,3.60
2023-01-20T00:23:47.922Z,3.59
2023-01-20T00:24:09.764Z,3.59
2023-01-20T00:24:31.527Z,3.58
2023-01-20T00:24:53.314Z,3.57
2023-01-20T00:25:15.635Z,3.57
2023-01-20T00:25:38.113Z,3.56
2023-01-20T00:26:01.632Z,3.55
2023-01-20T00:26:24.009Z,3.55
2023-01-20T00:26:45.816Z,3.54
2023-01-20T00:27:07.824Z,3.53
2023-01-20T00:27:29.588Z,3.52
2023-01-20T00:27:53.422Z,3.52
2023-01-20T00:28:15.216Z,3.51
2023-01-20T00:28:37.509Z,3.51
2023-01-20T00:28:59.206Z,3.50
2023-01-20T00:29:20.923Z,3.50
2023-01-20T00:29:44.387Z,3.50
2023-01-20T00:30:06.599Z,3.50
2023-01-20T00:30:28.458Z,3.51
2023-01-20T00:30:50.484Z,3.52
2023-01-20T00:31:25.583Z,3.53
2023-01-20T00:31:47.383Z,3.56
2023-01-20T00:32:09.207Z,3.57
2023-01-20T00:32:30.994Z,3.59
2023-01-20T00:32:52.880Z,3.61
2023-01-20T00:33:14.571Z,3.62
2023-01-20T00:33:36.355Z,3.63
2023-01-20T00:33:58.950Z,3.64
2023-01-20T00:34:20.685Z,3.64
2023-01-20T00:34:42.537Z,3.64
2023-01-20T00:35:04.609Z,3.64
2023-01-20T00:35:26.394Z,3.64
2023-01-20T00:35:48.179Z,3.64
2023-01-20T00:36:10.110Z,3.64
2023-01-20T00:36:32.165Z,3.63
2023-01-20T00:36:54.041Z,3.62
2023-01-20T00:37:15.825Z,3.61
2023-01-20T00:37:37.819Z,3.61
2023-01-20T00:37:59.605Z,3.60
2023-01-20T00:38:21.894Z,3.60
2023-01-20T00:38:43.573Z,3.60
2023-01-20T00:39:05.360Z,3.58
2023-01-20T00:39:27.147Z,3.58
2023-01-20T00:39:48.838Z,3.57
2023-01-20T00:40:11.020Z,3.57
2023-01-20T00:40:32.745Z,3.57
2023-01-20T00:40:55.315Z,3.56
2023-01-20T00:41:17.110Z,3.55
2023-01-20T00:41:38.880Z,3.55
2023-01-20T00:42:00.667Z,3.55
2023-01-20T00:42:22.444Z,3.54
2023-01-20T00:42:44.234Z,3.53
2023-01-20T00:43:06.115Z,3.53
2023-01-20T00:43:27.902Z,3.53
2023-01-20T00:43:49.890Z,3.52
2023-01-20T00:44:11.566Z,3.52
2023-01-20T00:44:33.362Z,3.51
2023-01-20T00:44:55.064Z,3.51
2023-01-20T00:45:17.031Z,3.51
2023-01-20T00:45:38.819Z,3.51
2023-01-20T00:46:00.608Z,3.50
2023-01-20T00:46:23.289Z,3.50
2023-01-20T00:46:45.149Z,3.49
2023-01-20T00:47:06.977Z,3.49
2023-01-20T00:47:28.759Z,3.50
2023-01-20T00:47:50.453Z,3.51
2023-01-20T00:48:12.226Z,3.52
2023-01-20T00:48:34.318Z,3.53
2023-01-20T00:48:56.008Z,3.56
2023-01-20T00:49:17.791Z,3.58
2023-01-20T00:49:39.568Z,3.59
2023-01-20T00:50:01.351Z,3.61
2023-01-20T00:50:23.135Z,3.63
2023-01-20T00:50:44.919Z,3.64
2023-01-20T00:51:07.750Z,3.65
2023-01-20T00:51:29.515Z,3.67
2023-01-20T00:51:51.303Z,3.68
2023-01-20T00:52:13.183Z,3.68
2023-01-20T00:52:34.977Z,3.68
2023-01-20T00:52:56.648Z,3.68
2023-01-20T00:53:18.433Z,3.69
2023-01-20T00:53:40.235Z,3.68
2023-01-20T00:54:02.001Z,3.68
2023-01-20T00:54:23.689Z,3.68
2023-01-20T00:54:45.587Z,3.68
2023-01-20T00:55:07.662Z,3.67
2023-01-20T00:55:29.363Z,3.67
2023-01-20T00:55:51.130Z,3.66
2023-01-20T00:56:12.912Z,3.66
2023-01-20T00:56:34.697Z,3.66
2023-01-20T00:56:56.484Z,3.65
2023-01-20T00:57:18.268Z,3.65
2023-01-20T00:57:40.061Z,3.64
2023-01-20T00:58:01.963Z,3.64
2023-01-20T00:58:23.928Z,3.63
2023-01-20T00:58:45.677Z,3.63
2023-01-20T00:59:08.627Z,3.63
2023-01-20T00:59:30.412Z,3.63
2023-01-20T00:59:52.190Z,3.62
2023-01-20T01:00:14.299Z,3.61
2023-01-20T01:00:36.096Z,3.61
2023-01-20T01:00:59.151Z,3.61
2023-01-20T01:01:21.711Z,3.60
2023-01-20T01:01:43.652Z,3.59
2023-01-20T01:02:05.654Z,3.59
2023-01-20T01:02:27.521Z,3.59
2023-01-20T01:02:49.234Z,3.58
2023-01-20T01:03:11.117Z,3.58
2023-01-20T01:03:33.108Z,3.57
2023-01-20T01:03:55.999Z,3.57
2023-01-20T01:04:17.806Z,3.58
2023-01-20T01:04:39.582Z,3.58
2023-01-20T01:05:01.272Z,3.59
2023-01-20T01:05:23.261Z,3.59
2023-01-20T01:05:45.356Z,3.61
2023-01-20T01:06:13.674Z,3.63
2023-01-20T01:06:35.425Z,3.64
2023-01-20T01:06:57.243Z,3.66
2023-01-20T01:07:19.041Z,3.68
2023-01-20T01:07:40.754Z,3.70
2023-01-20T01:08:02.468Z,3.71
2023-01-20T01:08:24.150Z,3.73
2023-01-20T01:08:45.867Z,3.75
2023-01-20T01:09:07.605Z,3.76
2023-01-20T01:09:29.318Z,3.76
2023-01-20T01:09:51.001Z,3.77
2023-01-20T01:10:12.793Z,3.76
2023-01-20T01:10:34.578Z,3.76
2023-01-20T01:10:56.376Z,3.76
2023-01-20T01:11:18.159Z,3.75
2023-01-20T01:11:39.930Z,3.75
2023-01-20T01:12:01.630Z,3.74
2023-01-20T01:12:23.501Z,3.73
2023-01-20T01:12:45.286Z,3.72
2023-01-20T01:13:07.273Z,3.72
2023-01-20T01:13:29.158Z,3.71
2023-01-20T01:13:50.944Z,3.70
2023-01-20T01:14:12.743Z,3.69
2023-01-20T01:14:34.613Z,3.69
2023-01-20T01:14:56.414Z,3.68
2023-01-20T01:15:18.162Z,3.68
2023-01-20T01:15:39.969Z,3.67
2023-01-20T01:16:01.863Z,3.67
2023-01-20T01:16:23.877Z,3.66
2023-01-20T01:16:45.729Z,3.66
2023-01-20T01:17:07.531Z,3.66
2023-01-20T01:17:29.230Z,3.65
2023-01-20T01:17:51.799Z,3.65
2023-01-20T01:18:13.512Z,3.64
2023-01-20T01:18:35.271Z,3.64
2023-01-20T01:18:57.053Z,3.64
2023-01-20T01:19:19.157Z,3.63
2023-01-20T01:19:40.941Z,3.63
2023-01-20T01:20:02.657Z,3.64
2023-01-20T01:20:24.604Z,3.64
2023-01-20T01:20:46.382Z,3.65
2023-01-20T01:21:11.949Z,3.66
2023-01-20T01:21:33.689Z,3.68
2023-01-20T01:21:55.382Z,3.71
2023-01-20T01:22:17.103Z,3.73
2023-01-20T01:22:38.885Z,3.75
2023-01-20T01:23:00.677Z,3.77
2023-01-20T01:23:22.395Z,3.77
2023-01-20T01:23:44.136Z,3.78
2023-01-20T01:24:05.891Z,3.79
2023-01-20T01:24:27.705Z,3.80
2023-01-20T01:24:49.368Z,3.79
2023-01-20T01:25:11.375Z,3.79
2023-01-20T01:25:33.476Z,3.78
2023-01-20T01:25:55.256Z,3.78
2023-01-20T01:26:17.041Z,3.78
2023-01-20T01:26:38.752Z,3.76
2023-01-20T01:27:00.538Z,3.76
2023-01-20T01:27:22.223Z,3.75
2023-01-20T01:27:43.970Z,3.74
2023-01-20T01:28:05.859Z,3.73
2023-01-20T01:28:27.642Z,3.72
2023-01-20T01:28:49.631Z,3.72
2023-01-20T01:29:11.309Z,3.71
2023-01-20T01:29:33.014Z,3.71
2023-01-20T01:29:55.909Z,3.70
2023-01-20T01:30:17.697Z,3.70
2023-01-20T01:30:39.503Z,3.68
2023-01-20T01:31:02.189Z,3.68
2023-01-20T01:31:24.047Z,3.67
2023-01-20T01:31:45.876Z,3.67
2023-01-20T01:32:07.763Z,3.67
2023-01-20T01:32:29.483Z,3.66
2023-01-20T01:32:51.182Z,3.65
2023-01-20T01:33:12.989Z,3.65
2023-01-20T01:33:34.874Z,3.64
2023-01-20T01:33:56.661Z,3.64
2023-01-20T01:34:18.442Z,3.63
2023-01-20T01:34:40.332Z,3.64
2023-01-20T01:35:02.140Z,3.63
2023-01-20T01:35:23.847Z,3.63
2023-01-20T01:35:54.280Z,3.63
2023-01-20T01:36:16.980Z,3.65
2023-01-20T01:36:38.763Z,3.68
2023-01-20T01:37:00.547Z,3.68
2023-01-20T01:37:22.537Z,3.70
2023-01-20T01:37:44.435Z,3.73
2023-01-20T01:38:06.207Z,3.75
2023-01-20T01:38:27.975Z,3.76
2023-01-20T01:38:57.916Z,3.78
2023-01-20T01:39:21.073Z,3.79
2023-01-20T01:39:42.794Z,3.79
2023-01-20T01:40:05.169Z,3.79
2023-01-20T01:40:26.875Z,3.79
2023-01-20T01:40:49.439Z,3.79
2023-01-20T01:41:14.193Z,3.79
2023-01-20T01:41:35.992Z,3.78
2023-01-20T01:41:57.759Z,3.78
2023-01-20T01:42:19.951Z,3.77
2023-01-20T01:42:42.888Z,3.77
2023-01-20T01:43:06.629Z,3.76
2023-01-20T01:43:32.064Z,3.75
2023-01-20T01:44:23.256Z,3.74
2023-01-20T01:45:04.002Z,3.73
2023-01-20T01:45:26.414Z,3.72
2023-01-20T01:45:48.658Z,3.72
2023-01-20T01:46:10.475Z,3.71
2023-01-20T01:46:32.474Z,3.70
2023-01-20T01:46:54.268Z,3.70
2023-01-20T01:47:16.036Z,3.69
2023-01-20T01:47:38.944Z,3.69
2023-01-20T01:48:02.580Z,3.68
2023-01-20T01:48:26.194Z,3.68
2023-01-20T01:48:47.982Z,3.67
2023-01-20T01:49:29.944Z,3.67
2023-01-20T01:49:51.696Z,3.65
2023-01-20T01:50:33.666Z,3.66
2023-01-20T01:50:55.413Z,3.66
2023-01-20T01:51:18.947Z,3.67
2023-01-20T01:51:46.348Z,3.70
2023-01-20T01:52:11.305Z,3.72
2023-01-20T01:52:33.085Z,3.74
2023-01-20T01:52:55.894Z,3.76
2023-01-20T01:53:17.678Z,3.77
2023-01-20T01:53:40.487Z,3.79
2023-01-20T01:54:03.602Z,3.80
2023-01-20T01:54:26.305Z,3.80
2023-01-20T01:54:49.416Z,3.81
2023-01-20T01:55:11.603Z,3.81
2023-01-20T01:55:34.729Z,3.80
2023-01-20T01:55:57.638Z,3.80
2023-01-20T01:56:20.242Z,3.80
2023-01-20T01:56:42.247Z,3.79
2023-01-20T01:57:04.747Z,3.78
2023-01-20T01:57:26.512Z,3.78
2023-01-20T01:57:48.398Z,3.78
2023-01-20T01:58:11.420Z,3.77
2023-01-20T01:58:34.529Z,3.76
2023-01-20T01:58:57.537Z,3.76
2023-01-20T01:59:19.374Z,3.75
2023-01-20T01:59:41.109Z,3.74
2023-01-20T02:00:04.220Z,3.73
2023-01-20T02:00:34.727Z,3.73
2023-01-20T02:00:56.521Z,3.72
2023-01-20T02:01:18.610Z,3.71
2023-01-20T02:01:41.184Z,3.70
2023-01-20T02:02:03.157Z,3.69
2023-01-20T02:02:25.107Z,3.69
2023-01-20T02:02:46.875Z,3.68
2023-01-20T02:03:08.619Z,3.68
2023-01-20T02:03:33.882Z,3.67
2023-01-20T02:03:59.142Z,3.67
2023-01-20T02:04:22.179Z,3.66
2023-01-20T02:04:43.947Z,3.65
2023-01-20T02:05:06.030Z,3.64
2023-01-20T02:05:27.818Z,3.65
2023-01-20T02:05:49.812Z,3.64
2023-01-20T02:06:11.799Z,3.65
2023-01-20T02:06:34.201Z,3.65
2023-01-20T02:06:57.101Z,3.66
2023-01-20T02:07:19.710Z,3.68
2023-01-20T02:07:42.717Z,3.69
2023-01-20T02:08:04.808Z,3.71
2023-01-20T02:08:26.602Z,3.74
2023-01-20T02:08:48.309Z,3.75
2023-01-20T02:09:10.044Z,3.77
2023-01-20T02:09:31.845Z,3.78
2023-01-20T02:09:53.962Z,3.79
2023-01-20T02:10:16.261Z,3.80
2023-01-20T02:10:37.959Z,3.80
2023-01-20T02:10:59.638Z,3.81
2023-01-20T02:11:21.386Z,3.80
2023-01-20T02:11:48.551Z,3.79
2023-01-20T02:12:14.172Z,3.79
2023-01-20T02:12:35.937Z,3.78
2023-01-20T02:12:57.722Z,3.77
2023-01-20T02:13:19.529Z,3.77
2023-01-20T02:13:41.276Z,3.76
2023-01-20T02:14:03.076Z,3.75
2023-01-20T02:14:26.085Z,3.74
2023-01-20T02:14:49.016Z,3.73
2023-01-20T02:15:11.087Z,3.72
2023-01-20T02:15:42.712Z,3.71
2023-01-20T02:16:04.534Z,3.71
2023-01-20T02:16:49.486Z,3.69
2023-01-20T02:17:20.475Z,3.68
2023-01-20T02:17:44.912Z,3.67
2023-01-20T02:18:23.266Z,3.67
2023-01-20T02:18:47.607Z,3.66
2023-01-20T02:19:21.322Z,3.65
2023-01-20T02:19:45.905Z,3.64
2023-01-20T02:20:16.702Z,3.64
2023-01-20T02:21:10.687Z,3.63
2023-01-20T02:21:51.083Z,3.62
2023-01-20T02:22:24.901Z,3.62
2023-01-20T02:22:52.482Z,3.63
2023-01-20T02:23:32.631Z,3.64
2023-01-20T02:24:00.355Z,3.66
2023-01-20T02:24:22.142Z,3.69
2023-01-20T02:24:49.717Z,3.71
2023-01-20T02:25:17.587Z,3.73
2023-01-20T02:25:51.472Z,3.75
2023-01-20T02:26:16.074Z,3.76
2023-01-20T02:26:37.869Z,3.77
2023-01-20T02:27:00.992Z,3.78
2023-01-20T02:27:34.009Z,3.77
2023-01-20T02:27:55.793Z,3.76
2023-01-20T02:28:36.092Z,3.76
2023-01-20T02:29:06.322Z,3.74
2023-01-20T02:29:37.264Z,3.73
2023-01-20T02:30:17.167Z,3.72
2023-01-20T02:30:47.787Z,3.70
2023-01-20T02:31:33.376Z,3.68
2023-01-20T02:32:08.619Z,3.67
2023-01-20T02:32:33.264Z,3.66
2023-01-20T02:32:56.609Z,3.66
2023-01-20T02:33:21.132Z,3.65
2023-01-20T02:33:44.356Z,3.64
2023-01-20T02:34:25.154Z,3.63
2023-01-20T02:34:46.941Z,3.63
2023-01-20T02:35:10.476Z,3.62
2023-01-20T02:35:35.314Z,3.61
2023-01-20T02:36:03.849Z,3.60
2023-01-20T02:36:25.531Z,3.60
2023-01-20T02:37:20.049Z,3.60
2023-01-20T02:37:44.490Z,3.60
2023-01-20T02:38:12.113Z,3.61
2023-01-20T02:38:33.915Z,3.63
2023-01-20T02:39:06.424Z,3.65
2023-01-20T02:39:30.958Z,3.67
2023-01-20T02:39:55.806Z,3.69
2023-01-20T02:40:17.607Z,3.71
2023-01-20T02:40:56.473Z,3.73
2023-01-20T02:41:23.148Z,3.74
2023-01-20T02:41:49.252Z,3.74
2023-01-20T02:42:11.737Z,3.74
2023-01-20T02:43:02.830Z,3.74
2023-01-20T02:43:36.109Z,3.73
2023-01-20T02:43:59.425Z,3.72
2023-01-20T02:44:26.940Z,3.71
2023-01-20T02:44:53.116Z,3.70
2023-01-20T02:45:17.066Z,3.69
2023-01-20T02:45:47.554Z,3.68
2023-01-20T02:46:11.687Z,3.67
2023-01-20T02:46:34.474Z,3.67
2023-01-20T02:47:04.233Z,3.66
2023-01-20T02:47:29.839Z,3.66
2023-01-20T02:48:02.531Z,3.65
2023-01-20T02:48:33.220Z,3.64
2023-01-20T02:48:56.211Z,3.64
2023-01-20T02:49:19.647Z,3.63
2023-01-20T02:49:50.437Z,3.62
2023-01-20T02:50:21.932Z,3.61
2023-01-20T02:50:55.375Z,3.60
2023-01-20T02:51:24.542Z,3.60
2023-01-20T02:51:46.343Z,3.59
2023-01-20T02:52:12.184Z,3.58
2023-01-20T02:52:37.555Z,3.58
2023-01-20T02:52:59.773Z,3.58
2023-01-20T02:53:21.682Z,3.58
2023-01-20T02:54:04.689Z,3.59
2023-01-20T02:54:27.593Z,3.61
2023-01-20T02:54:50.001Z,3.63
2023-01-20T02:55:13.987Z,3.65
2023-01-20T02:55:51.563Z,3.67
2023-01-20T02:56:13.564Z,3.69
2023-01-20T02:56:35.437Z,3.71
2023-01-20T02:56:57.268Z,3.73
2023-01-20T02:57:21.768Z,3.73
2023-01-20T02:57:44.562Z,3.75
2023-01-20T02:59:14.953Z,3.74
2023-01-20T02:59:52.726Z,3.73
2023-01-20T03:00:19.217Z,3.72
2023-01-20T03:00:42.843Z,3.70
2023-01-20T03:01:07.669Z,3.70
2023-01-20T03:01:32.063Z,3.68
2023-01-20T03:01:55.406Z,3.68
2023-01-20T03:02:21.533Z,3.66
2023-01-20T03:02:43.524Z,3.66
2023-01-20T03:03:09.407Z,3.65
2023-01-20T03:03:46.643Z,3.64
2023-01-20T03:04:24.984Z,3.62
2023-01-20T03:05:03.934Z,3.61
2023-01-20T03:05:33.460Z,3.60
2023-01-20T03:05:56.469Z,3.59
2023-01-20T03:06:19.425Z,3.58
2023-01-20T03:06:42.752Z,3.57
2023-01-20T03:07:04.742Z,3.56
2023-01-20T03:07:27.268Z,3.55
2023-01-20T03:07:49.361Z,3.55
2023-01-20T03:08:11.619Z,3.54
2023-01-20T03:08:33.596Z,3.53
2023-01-20T03:08:56.830Z,3.52
2023-01-20T03:09:19.659Z,3.51
2023-01-20T03:09:43.978Z,3.50
2023-01-20T03:10:07.295Z,3.49
2023-01-20T03:10:30.111Z,3.48
2023-01-20T03:10:52.094Z,3.47
2023-01-20T03:11:14.198Z,3.47
2023-01-20T03:11:52.167Z,3.46
2023-01-20T03:12:33.953Z,3.46
2023-01-20T03:13:27.854Z,3.48
2023-01-20T03:13:55.569Z,3.51
2023-01-20T03:14:17.659Z,3.52
2023-01-20T03:14:39.768Z,3.54
2023-01-20T03:15:01.742Z,3.55
2023-01-20T03:15:24.859Z,3.56
2023-01-20T03:15:55.231Z,3.57
2023-01-20T03:16:20.769Z,3.57
2023-01-20T03:16:42.735Z,3.57
2023-01-20T03:17:04.571Z,3.56
2023-01-20T03:17:26.361Z,3.54
2023-01-20T03:17:48.148Z,3.54
2023-01-20T03:18:09.833Z,3.54
2023-01-20T03:18:31.611Z,3.52
2023-01-20T03:18:53.702Z,3.51
2023-01-20T03:19:15.396Z,3.50
2023-01-20T03:19:37.175Z,3.50
2023-01-20T03:19:59.054Z,3.48
2023-01-20T03:20:20.866Z,3.47
2023-01-20T03:20:42.723Z,3.46
2023-01-20T03:21:05.020Z,3.45
2023-01-20T03:21:26.756Z,3.45
2023-01-20T03:21:48.701Z,3.44
2023-01-20T03:22:10.421Z,3.43
2023-01-20T03:22:32.121Z,3.42
2023-01-20T03:22:53.944Z,3.41
2023-01-20T03:23:15.726Z,3.40
2023-01-20T03:23:38.536Z,3.39
2023-01-20T03:24:00.843Z,3.39
2023-01-20T03:24:22.616Z,3.37
2023-01-20T03:24:44.325Z,3.36
2023-01-20T03:25:06.491Z,3.35
2023-01-20T03:25:28.274Z,3.34
2023-01-20T03:25:50.061Z,3.33
2023-01-20T03:26:12.457Z,3.32
2023-01-20T03:26:34.329Z,3.31
2023-01-20T03:26:56.126Z,3.30
2023-01-20T03:27:17.931Z,3.29
2023-01-20T03:27:39.701Z,3.28
2023-01-20T03:28:01.601Z,3.28
2023-01-20T03:28:23.367Z,3.29
2023-01-20T03:28:45.331Z,3.29
2023-01-20T03:29:07.764Z,3.30
2023-01-20T03:29:30.799Z,3.31
2023-01-20T03:29:52.495Z,3.32
2023-01-20T03:30:15.049Z,3.34
2023-01-20T03:30:36.878Z,3.35
2023-01-20T03:30:58.755Z,3.37
2023-01-20T03:31:35.226Z,3.38
2023-01-20T03:31:58.042Z,3.39
2023-01-20T03:33:04.066Z,3.43
2023-01-20T03:33:25.795Z,3.37
2023-01-20T03:33:48.297Z,3.36
2023-01-20T03:34:13.266Z,3.34
2023-01-20T03:34:35.648Z,3.33
2023-01-20T03:34:57.437Z,3.32
2023-01-20T03:35:19.217Z,3.31
2023-01-20T03:35:40.929Z,3.31
2023-01-20T03:36:02.683Z,3.30
2023-01-20T03:36:25.283Z,3.29
2023-01-20T03:36:47.075Z,3.28
2023-01-20T03:37:09.371Z,3.27
2023-01-20T03:37:31.080Z,3.26
2023-01-20T03:37:52.935Z,3.25
2023-01-20T03:38:14.720Z,3.24
2023-01-20T03:38:36.455Z,3.23
2023-01-20T03:38:58.513Z,3.21
2023-01-20T03:39:20.382Z,3.21
2023-01-20T03:39:42.165Z,3.19
2023-01-20T03:40:04.259Z,3.19
2023-01-20T03:40:26.553Z,3.18
2023-01-20T03:40:58.873Z,3.16
2023-01-20T03:41:25.359Z,3.14
2023-01-20T03:42:08.851Z,3.13
2023-01-20T03:42:31.941Z,3.11
2023-01-20T03:42:58.953Z,3.10
2023-01-20T03:43:22.260Z,3.08
2023-01-20T03:43:45.680Z,3.06
2023-01-20T03:44:10.637Z,3.05
2023-01-20T03:44:51.134Z,3.03
2023-01-20T03:45:17.728Z,3.02
2023-01-20T03:45:55.819Z,3.00
2023-01-20T03:46:24.526Z,2.99
2023-01-20T03:46:47.935Z,2.97
2023-01-20T03:47:32.664Z,2.96
2023-01-20T03:48:15.190Z,2.94
2023-01-20T03:48:46.752Z,2.92
2023-01-20T03:49:14.210Z,2.90
2023-01-20T03:49:37.301Z,2.90
2023-01-20T03:50:04.508Z,2.90
2023-01-20T03:50:38.358Z,2.92
2023-01-20T03:51:01.979Z,2.94
2023-01-20T03:51:33.696Z,2.96
2023-01-20T03:51:55.355Z,2.97
2023-01-20T03:52:17.158Z,2.99
2023-01-20T03:52:47.598Z,3.00
2023-01-20T03:53:10.340Z,3.01
2023-01-20T03:53:34.066Z,3.01
2023-01-20T03:53:56.671Z,3.01
2023-01-20T03:54:19.297Z,3.01
2023-01-20T03:54:43.207Z,3.00
2023-01-20T03:55:06.419Z,3.00
2023-01-20T03:55:35.787Z,2.99
2023-01-20T03:56:00.222Z,2.98
2023-01-20T03:56:34.279Z,2.96
2023-01-20T03:57:04.398Z,2.95
2023-01-20T03:57:36.781Z,2.93
2023-01-20T03:58:04.000Z,2.92
2023-01-20T03:58:36.596Z,2.91
2023-01-20T03:58:58.579Z,2.89
2023-01-20T03:59:20.371Z,2.88
2023-01-20T03:59:42.461Z,2.88
2023-01-20T04:00:05.475Z,2.87
2023-01-20T04:00:34.007Z,2.86
2023-01-20T04:00:57.815Z,2.85
2023-01-20T04:01:20.704Z,2.84
2023-01-20T04:01:44.010Z,2.83
2023-01-20T04:02:06.440Z,2.82
2023-01-20T04:02:28.500Z,2.81
2023-01-20T04:02:51.143Z,2.80
2023-01-20T04:03:16.980Z,2.79
2023-01-20T04:03:39.639Z,2.79
2023-01-20T04:04:01.419Z,2.77
2023-01-20T04:04:23.202Z,2.77
2023-01-20T04:04:45.395Z,2.76
2023-01-20T04:05:07.490Z,2.74
2023-01-20T04:05:29.193Z,2.74
2023-01-20T04:05:50.888Z,2.73
2023-01-20T04:06:12.756Z,2.72
2023-01-20T04:06:34.523Z,2.71
2023-01-20T04:06:56.721Z,2.70
2023-01-20T04:07:20.344Z,2.69
2023-01-20T04:07:42.126Z,2.69
2023-01-20T04:08:04.318Z,2.67
2023-01-20T04:08:26.821Z,2.67
2023-01-20T04:08:52.491Z,2.66
2023-01-20T04:09:16.012Z,2.65
2023-01-20T04:09:39.351Z,2.64
2023-01-20T04:10:03.683Z,2.63
2023-01-20T04:10:25.462Z,2.63
2023-01-20T04:10:47.436Z,2.61
2023-01-20T04:11:09.231Z,2.61
2023-01-20T04:11:31.016Z,2.60
2023-01-20T04:11:52.743Z,2.60
2023-01-20T04:12:14.429Z,2.62
2023-01-20T04:12:36.120Z,2.63
2023-01-20T04:12:57.825Z,2.64
2023-01-20T04:13:19.630Z,2.65
2023-01-20T04:13:41.421Z,2.67
2023-01-20T04:14:03.210Z,2.69
2023-01-20T04:14:24.988Z,2.70
2023-01-20T04:14:46.772Z,2.72
2023-01-20T04:15:08.554Z,2.73
2023-01-20T04:15:32.998Z,2.73
2023-01-20T04:15:54.888Z,2.73
2023-01-20T04:16:17.083Z,2.74
2023-01-20T04:16:38.862Z,2.73
2023-01-20T04:17:00.648Z,2.73
2023-01-20T04:17:26.115Z,2.72
2023-01-20T04:17:47.899Z,2.72
2023-01-20T04:18:13.171Z,2.70
2023-01-20T04:18:34.944Z,2.69
2023-01-20T04:18:56.672Z,2.69
2023-01-20T04:19:18.433Z,2.68
2023-01-20T04:19:40.193Z,2.68
2023-01-20T04:20:04.777Z,2.67
2023-01-20T04:20:27.958Z,2.66
2023-01-20T04:21:00.624Z,2.65
2023-01-20T04:21:35.374Z,2.64
2023-01-20T04:22:17.903Z,2.64
2023-01-20T04:22:42.855Z,2.63
2023-01-20T04:23:04.641Z,2.62
2023-01-20T04:23:30.172Z,2.61
2023-01-20T04:23:53.124Z,2.60
2023-01-20T04:24:20.602Z,2.59
2023-01-20T04:24:43.748Z,2.58
2023-01-20T04:25:15.646Z,2.58
2023-01-20T04:25:37.651Z,2.57
2023-01-20T04:25:59.429Z,2.55
2023-01-20T04:26:21.163Z,2.54
2023-01-20T04:26:43.002Z,2.54
2023-01-20T04:27:04.784Z,2.53
2023-01-20T04:27:26.529Z,2.53
2023-01-20T04:27:48.267Z,2.52
2023-01-20T04:28:09.972Z,2.52
2023-01-20T04:28:32.432Z,2.50
2023-01-20T04:28:54.217Z,2.50
2023-01-20T04:29:16.207Z,2.49
2023-01-20T04:29:37.991Z,2.48
2023-01-20T04:29:59.664Z,2.48
2023-01-20T04:30:21.487Z,2.47
2023-01-20T04:30:43.402Z,2.46
2023-01-20T04:31:05.600Z,2.45
2023-01-20T04:31:31.035Z,2.44
2023-01-20T04:32:00.419Z,2.44
2023-01-20T04:32:22.246Z,2.43
2023-01-20T04:32:44.029Z,2.41
2023-01-20T04:33:05.817Z,2.41
2023-01-20T04:33:27.596Z,2.40
2023-01-20T04:33:49.486Z,2.39
2023-01-20T04:34:12.903Z,2.38
2023-01-20T04:34:34.689Z,2.36
2023-01-20T04:34:56.474Z,2.36
2023-01-20T04:35:19.200Z,2.35
2023-01-20T04:35:40.964Z,2.35
2023-01-20T04:36:02.748Z,2.34
2023-01-20T04:36:24.539Z,2.35
2023-01-20T04:36:46.319Z,2.35
2023-01-20T04:37:08.127Z,2.36
2023-01-20T04:37:29.884Z,2.38
2023-01-20T04:37:51.671Z,2.41
2023-01-20T04:38:13.460Z,2.43
2023-01-20T04:38:35.155Z,2.44
2023-01-20T04:38:56.920Z,2.46
2023-01-20T04:39:18.913Z,2.48
2023-01-20T04:39:40.592Z,2.48
2023-01-20T04:40:02.379Z,2.49
2023-01-20T04:40:24.272Z,2.50
2023-01-20T04:40:45.995Z,2.50
2023-01-20T04:41:10.389Z,2.50
2023-01-20T04:41:32.179Z,2.49
2023-01-20T04:41:54.061Z,2.49
2023-01-20T04:42:15.770Z,2.48
2023-01-20T04:42:37.528Z,2.48
2023-01-20T04:42:59.312Z,2.47
2023-01-20T04:43:23.418Z,2.46
2023-01-20T04:43:45.641Z,2.46
2023-01-20T04:44:07.628Z,2.45
2023-01-20T04:44:29.426Z,2.44
2023-01-20T04:44:51.195Z,2.43
2023-01-20T04:45:16.569Z,2.43
2023-01-20T04:45:38.757Z,2.42
2023-01-20T04:46:00.573Z,2.41
2023-01-20T04:46:22.366Z,2.41
2023-01-20T04:46:45.646Z,2.40
2023-01-20T04:47:07.428Z,2.39
2023-01-20T04:47:32.588Z,2.38
2023-01-20T04:47:54.290Z,2.37
2023-01-20T04:48:16.157Z,2.36
2023-01-20T04:48:37.950Z,2.36
2023-01-20T04:48:59.726Z,2.35
2023-01-20T04:49:21.510Z,2.35
2023-01-20T04:49:43.399Z,2.34
2023-01-20T04:50:05.397Z,2.34
2023-01-20T04:50:27.172Z,2.33
2023-01-20T04:50:48.858Z,2.33
2023-01-20T04:51:10.585Z,2.32
2023-01-20T04:51:32.728Z,2.31
2023-01-20T04:51:54.518Z,2.31
2023-01-20T04:52:16.606Z,2.30
2023-01-20T04:52:38.326Z,2.30
2023-01-20T04:53:00.914Z,2.29
2023-01-20T04:53:22.779Z,2.29
2023-01-20T04:53:44.565Z,2.28
2023-01-20T04:54:06.550Z,2.27
2023-01-20T04:54:28.263Z,2.27
2023-01-20T04:54:50.022Z,2.27
2023-01-20T04:55:11.815Z,2.28
2023-01-20T04:55:33.900Z,2.28
2023-01-20T04:55:55.785Z,2.30
2023-01-20T04:56:17.564Z,2.32
2023-01-20T04:56:39.352Z,2.33
2023-01-20T04:57:01.133Z,2.35
2023-01-20T04:57:22.923Z,2.38
2023-01-20T04:57:44.633Z,2.39
2023-01-20T04:58:06.385Z,2.42
2023-01-20T04:58:28.181Z,2.43
2023-01-20T04:58:49.951Z,2.43
2023-01-20T04:59:11.659Z,2.44
2023-01-20T04:59:33.537Z,2.44
2023-01-20T04:59:55.309Z,2.43
2023-01-20T05:00:20.198Z,2.43
2023-01-20T05:00:43.640Z,2.43
2023-01-20T05:01:05.638Z,2.42
2023-01-20T05:01:27.584Z,2.41
2023-01-20T05:01:49.598Z,2.40
2023-01-20T05:02:11.382Z,2.39
2023-01-20T05:02:33.258Z,2.38
2023-01-20T05:02:58.535Z,2.37
2023-01-20T05:03:20.298Z,2.36
2023-01-20T05:03:42.060Z,2.36
2023-01-20T05:04:03.833Z,2.35
2023-01-20T05:04:25.619Z,2.34
2023-01-20T05:04:47.403Z,2.34
2023-01-20T05:05:09.486Z,2.32
2023-01-20T05:05:31.279Z,2.32
2023-01-20T05:05:54.425Z,2.31
2023-01-20T05:06:16.485Z,2.30
2023-01-20T05:06:38.267Z,2.30
2023-01-20T05:07:00.056Z,2.29
2023-01-20T05:07:22.071Z,2.29
2023-01-20T05:07:43.933Z,2.28
2023-01-20T05:08:05.921Z,2.27
2023-01-20T05:08:27.712Z,2.26
2023-01-20T05:08:49.491Z,2.26
2023-01-20T05:09:15.361Z,2.25
2023-01-20T05:09:37.068Z,2.25
2023-01-20T05:09:58.829Z,2.24
2023-01-20T05:10:20.820Z,2.24
2023-01-20T05:10:42.605Z,2.23
2023-01-20T05:11:04.389Z,2.22
2023-01-20T05:11:26.170Z,2.22
2023-01-20T05:11:47.982Z,2.21
2023-01-20T05:12:09.844Z,2.20
2023-01-20T05:12:31.829Z,2.20
2023-01-20T05:12:53.618Z,2.19
2023-01-20T05:13:15.399Z,2.18
2023-01-20T05:13:39.548Z,2.18
2023-01-20T05:14:01.322Z,2.19
2023-01-20T05:14:23.069Z,2.21
2023-01-20T05:14:44.991Z,2.22
2023-01-20T05:15:06.980Z,2.24
2023-01-20T05:15:28.792Z,2.26
2023-01-20T05:15:50.592Z,2.27
2023-01-20T05:16:12.787Z,2.29
2023-01-20T05:16:35.248Z,2.31
2023-01-20T05:16:56.931Z,2.33
2023-01-20T05:17:18.713Z,2.34
2023-01-20T05:17:40.500Z,2.34